sensor_id;sensor_type;location;lat;lon;timestamp;temperature;humidity
11762;DHT22;5938;47.098;15.474;2023-04-03T00:00:32;3.90;94.40
11762;DHT22;5938;47.098;15.474;2023-04-03T00:04:36;3.60;94.90
11762;DHT22;5938;47.098;15.474;2023-04-03T00:08:40;3.40;95.10
11762;DHT22;5938;47.098;15.474;2023-04-03T00:12:43;3.20;95.50
11762;DHT22;5938;47.098;15.474;2023-04-03T00:16:48;3.10;96.00
11762;DHT22;5938;47.098;15.474;2023-04-03T00:20:51;3.00;96.30
11762;DHT22;5938;47.098;15.474;2023-04-03T00:24:54;2.80;96.70
11762;DHT22;5938;47.098;15.474;2023-04-03T00:28:58;2.60;97.10
11762;DHT22;5938;47.098;15.474;2023-04-03T00:33:03;2.50;97.50
11762;DHT22;5938;47.098;15.474;2023-04-03T00:37:06;2.30;98.30
11762;DHT22;5938;47.098;15.474;2023-04-03T00:41:10;2.30;98.70
11762;DHT22;5938;47.098;15.474;2023-04-03T00:45:35;2.20;98.80
11762;DHT22;5938;47.098;15.474;2023-04-03T00:49:40;2.10;98.90
11762;DHT22;5938;47.098;15.474;2023-04-03T00:53:46;2.00;99.30
11762;DHT22;5938;47.098;15.474;2023-04-03T00:57:51;1.90;99.90
11762;DHT22;5938;47.098;15.474;2023-04-03T01:01:56;1.90;99.80
11762;DHT22;5938;47.098;15.474;2023-04-03T01:06:03;1.80;99.90
11762;DHT22;5938;47.098;15.474;2023-04-03T01:10:09;1.70;99.90
11762;DHT22;5938;47.098;15.474;2023-04-03T01:14:15;1.60;99.90
11762;DHT22;5938;47.098;15.474;2023-04-03T01:18:18;1.50;99.90
11762;DHT22;5938;47.098;15.474;2023-04-03T01:22:26;1.60;99.90
11762;DHT22;5938;47.098;15.474;2023-04-03T01:26:32;1.50;99.90
11762;DHT22;5938;47.098;15.474;2023-04-03T01:30:41;1.40;99.90
11762;DHT22;5938;47.098;15.474;2023-04-03T01:34:47;1.20;99.90
11762;DHT22;5938;47.098;15.474;2023-04-03T01:38:51;1.20;99.90
11762;DHT22;5938;47.098;15.474;2023-04-03T01:42:54;1.20;99.90
11762;DHT22;5938;47.098;15.474;2023-04-03T01:46:58;1.20;99.90
11762;DHT22;5938;47.098;15.474;2023-04-03T01:51:02;1.00;99.90
11762;DHT22;5938;47.098;15.474;2023-04-03T01:55:06;1.00;99.90
11762;DHT22;5938;47.098;15.474;2023-04-03T01:59:10;0.90;99.90
11762;DHT22;5938;47.098;15.474;2023-04-03T02:03:13;0.80;99.90
11762;DHT22;5938;47.098;15.474;2023-04-03T02:07:18;0.90;99.90
11762;DHT22;5938;47.098;15.474;2023-04-03T02:11:22;0.80;99.90
11762;DHT22;5938;47.098;15.474;2023-04-03T02:15:32;0.90;99.90
11762;DHT22;5938;47.098;15.474;2023-04-03T02:19:35;1.00;99.90
11762;DHT22;5938;47.098;15.474;2023-04-03T02:23:41;1.00;99.90
11762;DHT22;5938;47.098;15.474;2023-04-03T02:27:44;0.90;99.90
11762;DHT22;5938;47.098;15.474;2023-04-03T02:31:48;0.90;99.90
11762;DHT22;5938;47.098;15.474;2023-04-03T02:35:53;0.90;99.90
11762;DHT22;5938;47.098;15.474;2023-04-03T02:39:58;0.80;99.90
11762;DHT22;5938;47.098;15.474;2023-04-03T02:44:03;0.80;99.90
11762;DHT22;5938;47.098;15.474;2023-04-03T02:48:07;0.80;99.90
11762;DHT22;5938;47.098;15.474;2023-04-03T02:52:11;0.70;99.90
11762;DHT22;5938;47.098;15.474;2023-04-03T02:56:17;0.70;99.90
11762;DHT22;5938;47.098;15.474;2023-04-03T03:00:22;0.80;99.90
11762;DHT22;5938;47.098;15.474;2023-04-03T03:04:25;0.80;99.90
11762;DHT22;5938;47.098;15.474;2023-04-03T03:08:29;0.90;99.90
11762;DHT22;5938;47.098;15.474;2023-04-03T03:12:34;0.90;99.90
11762;DHT22;5938;47.098;15.474;2023-04-03T03:16:38;1.00;99.90
11762;DHT22;5938;47.098;15.474;2023-04-03T03:20:41;1.00;99.90
11762;DHT22;5938;47.098;15.474;2023-04-03T03:24:45;1.20;99.90
11762;DHT22;5938;47.098;15.474;2023-04-03T03:28:50;1.20;99.90
11762;DHT22;5938;47.098;15.474;2023-04-03T03:32:53;1.30;99.90
11762;DHT22;5938;47.098;15.474;2023-04-03T03:36:57;1.30;99.90
11762;DHT22;5938;47.098;15.474;2023-04-03T03:41:01;1.20;99.90
11762;DHT22;5938;47.098;15.474;2023-04-03T03:45:07;1.30;99.90
11762;DHT22;5938;47.098;15.474;2023-04-03T03:49:11;1.50;99.90
11762;DHT22;5938;47.098;15.474;2023-04-03T03:53:16;1.70;99.90
11762;DHT22;5938;47.098;15.474;2023-04-03T03:57:20;1.90;99.90
11762;DHT22;5938;47.098;15.474;2023-04-03T04:01:25;2.00;99.90
11762;DHT22;5938;47.098;15.474;2023-04-03T04:05:29;2.20;99.90
11762;DHT22;5938;47.098;15.474;2023-04-03T04:09:33;2.30;99.90
11762;DHT22;5938;47.098;15.474;2023-04-03T04:13:36;2.40;99.90
11762;DHT22;5938;47.098;15.474;2023-04-03T04:17:43;2.60;99.90
11762;DHT22;5938;47.098;15.474;2023-04-03T04:21:48;2.80;99.30
11762;DHT22;5938;47.098;15.474;2023-04-03T04:25:52;2.90;98.70
11762;DHT22;5938;47.098;15.474;2023-04-03T04:29:55;3.00;98.80
11762;DHT22;5938;47.098;15.474;2023-04-03T04:34:01;3.20;97.40
11762;DHT22;5938;47.098;15.474;2023-04-03T04:38:05;3.40;97.40
11762;DHT22;5938;47.098;15.474;2023-04-03T04:42:11;3.50;96.00
11762;DHT22;5938;47.098;15.474;2023-04-03T04:46:18;3.80;94.50
11762;DHT22;5938;47.098;15.474;2023-04-03T04:50:24;3.80;94.00
11762;DHT22;5938;47.098;15.474;2023-04-03T04:54:27;3.80;94.60
11762;DHT22;5938;47.098;15.474;2023-04-03T04:58:31;3.90;93.70
11762;DHT22;5938;47.098;15.474;2023-04-03T05:02:35;4.10;93.50
11762;DHT22;5938;47.098;15.474;2023-04-03T05:06:40;4.10;93.50
11762;DHT22;5938;47.098;15.474;2023-04-03T05:10:45;4.10;93.40
11762;DHT22;5938;47.098;15.474;2023-04-03T05:14:51;4.20;93.10
11762;DHT22;5938;47.098;15.474;2023-04-03T05:18:55;4.20;93.50
11762;DHT22;5938;47.098;15.474;2023-04-03T05:23:00;4.30;91.70
11762;DHT22;5938;47.098;15.474;2023-04-03T05:27:04;4.50;92.10
11762;DHT22;5938;47.098;15.474;2023-04-03T05:31:07;4.60;91.40
11762;DHT22;5938;47.098;15.474;2023-04-03T05:35:11;4.70;91.40
11762;DHT22;5938;47.098;15.474;2023-04-03T05:39:17;4.70;91.10
11762;DHT22;5938;47.098;15.474;2023-04-03T05:43:20;4.80;90.50
11762;DHT22;5938;47.098;15.474;2023-04-03T05:47:24;4.90;91.00
11762;DHT22;5938;47.098;15.474;2023-04-03T05:51:30;5.00;90.40
11762;DHT22;5938;47.098;15.474;2023-04-03T05:55:37;5.10;90.00
11762;DHT22;5938;47.098;15.474;2023-04-03T05:59:41;5.40;90.10
11762;DHT22;5938;47.098;15.474;2023-04-03T06:03:44;5.50;90.30
11762;DHT22;5938;47.098;15.474;2023-04-03T06:07:48;5.50;89.40
11762;DHT22;5938;47.098;15.474;2023-04-03T06:11:53;5.70;89.20
11762;DHT22;5938;47.098;15.474;2023-04-03T06:15:57;5.90;89.80
11762;DHT22;5938;47.098;15.474;2023-04-03T06:20:00;6.10;90.00
11762;DHT22;5938;47.098;15.474;2023-04-03T06:24:06;6.30;88.20
11762;DHT22;5938;47.098;15.474;2023-04-03T06:28:12;6.40;86.30
11762;DHT22;5938;47.098;15.474;2023-04-03T06:32:16;6.40;87.90
11762;DHT22;5938;47.098;15.474;2023-04-03T06:36:20;6.50;86.90
11762;DHT22;5938;47.098;15.474;2023-04-03T06:40:25;6.50;85.30
11762;DHT22;5938;47.098;15.474;2023-04-03T06:44:30;6.40;86.60
11762;DHT22;5938;47.098;15.474;2023-04-03T06:48:36;6.30;87.60
11762;DHT22;5938;47.098;15.474;2023-04-03T06:52:39;6.40;86.90
11762;DHT22;5938;47.098;15.474;2023-04-03T06:56:43;6.70;87.30
11762;DHT22;5938;47.098;15.474;2023-04-03T07:00:48;6.90;83.30
11762;DHT22;5938;47.098;15.474;2023-04-03T07:04:52;7.20;83.80
11762;DHT22;5938;47.098;15.474;2023-04-03T07:08:56;7.30;83.60
11762;DHT22;5938;47.098;15.474;2023-04-03T07:12:59;7.50;81.30
11762;DHT22;5938;47.098;15.474;2023-04-03T07:17:07;7.90;82.00
11762;DHT22;5938;47.098;15.474;2023-04-03T07:21:13;8.10;81.90
11762;DHT22;5938;47.098;15.474;2023-04-03T07:25:17;8.30;79.90
11762;DHT22;5938;47.098;15.474;2023-04-03T07:29:21;8.40;82.10
11762;DHT22;5938;47.098;15.474;2023-04-03T07:33:26;8.40;79.70
11762;DHT22;5938;47.098;15.474;2023-04-03T07:37:30;8.60;78.80
11762;DHT22;5938;47.098;15.474;2023-04-03T07:41:34;10.30;75.30
11762;DHT22;5938;47.098;15.474;2023-04-03T07:45:38;9.90;77.20
11762;DHT22;5938;47.098;15.474;2023-04-03T07:49:44;8.80;76.60
11762;DHT22;5938;47.098;15.474;2023-04-03T07:53:47;8.40;76.90
11762;DHT22;5938;47.098;15.474;2023-04-03T07:57:51;8.40;77.80
11762;DHT22;5938;47.098;15.474;2023-04-03T08:01:55;8.20;78.20
11762;DHT22;5938;47.098;15.474;2023-04-03T08:06:04;7.60;78.10
11762;DHT22;5938;47.098;15.474;2023-04-03T08:10:12;7.80;77.90
11762;DHT22;5938;47.098;15.474;2023-04-03T08:14:16;9.90;75.20
11762;DHT22;5938;47.098;15.474;2023-04-03T08:18:20;9.40;73.40
11762;DHT22;5938;47.098;15.474;2023-04-03T08:22:27;11.40;71.50
11762;DHT22;5938;47.098;15.474;2023-04-03T08:26:31;11.40;68.20
11762;DHT22;5938;47.098;15.474;2023-04-03T08:30:35;9.70;72.10
11762;DHT22;5938;47.098;15.474;2023-04-03T08:34:40;9.50;72.70
11762;DHT22;5938;47.098;15.474;2023-04-03T08:38:45;8.80;72.10
11762;DHT22;5938;47.098;15.474;2023-04-03T08:42:57;8.80;71.40
11762;DHT22;5938;47.098;15.474;2023-04-03T08:47:14;9.70;70.60
11762;DHT22;5938;47.098;15.474;2023-04-03T08:51:22;12.10;63.40
11762;DHT22;5938;47.098;15.474;2023-04-03T08:55:33;13.60;62.60
11762;DHT22;5938;47.098;15.474;2023-04-03T08:59:39;11.20;62.60
11762;DHT22;5938;47.098;15.474;2023-04-03T09:03:44;11.00;63.60
11762;DHT22;5938;47.098;15.474;2023-04-03T09:07:51;11.50;63.00
11762;DHT22;5938;47.098;15.474;2023-04-03T09:12:06;11.50;62.90
11762;DHT22;5938;47.098;15.474;2023-04-03T09:16:21;14.70;59.50
11762;DHT22;5938;47.098;15.474;2023-04-03T09:20:39;12.10;61.80
11762;DHT22;5938;47.098;15.474;2023-04-03T09:24:45;10.50;64.20
11762;DHT22;5938;47.098;15.474;2023-04-03T09:28:52;9.70;65.80
11762;DHT22;5938;47.098;15.474;2023-04-03T09:32:58;9.30;66.40
11762;DHT22;5938;47.098;15.474;2023-04-03T09:37:04;8.90;66.40
11762;DHT22;5938;47.098;15.474;2023-04-03T09:41:21;8.70;69.30
11762;DHT22;5938;47.098;15.474;2023-04-03T09:45:29;8.70;66.70
11762;DHT22;5938;47.098;15.474;2023-04-03T09:49:33;8.20;68.40
11762;DHT22;5938;47.098;15.474;2023-04-03T09:53:39;8.40;69.50
11762;DHT22;5938;47.098;15.474;2023-04-03T09:57:43;9.00;67.20
11762;DHT22;5938;47.098;15.474;2023-04-03T10:01:59;8.90;66.90
11762;DHT22;5938;47.098;15.474;2023-04-03T10:06:04;8.80;66.80
11762;DHT22;5938;47.098;15.474;2023-04-03T10:10:18;8.60;67.90
11762;DHT22;5938;47.098;15.474;2023-04-03T10:14:22;8.40;69.00
11762;DHT22;5938;47.098;15.474;2023-04-03T10:18:35;8.90;69.10
11762;DHT22;5938;47.098;15.474;2023-04-03T10:22:45;11.60;63.00
11762;DHT22;5938;47.098;15.474;2023-04-03T10:26:59;11.90;63.30
11762;DHT22;5938;47.098;15.474;2023-04-03T10:31:13;11.60;63.00
11762;DHT22;5938;47.098;15.474;2023-04-03T10:35:30;13.20;62.30
11762;DHT22;5938;47.098;15.474;2023-04-03T10:39:42;14.40;61.90
11762;DHT22;5938;47.098;15.474;2023-04-03T10:43:58;13.40;59.70
11762;DHT22;5938;47.098;15.474;2023-04-03T10:48:08;14.30;60.10
11762;DHT22;5938;47.098;15.474;2023-04-03T10:52:19;13.60;59.00
11762;DHT22;5938;47.098;15.474;2023-04-03T10:56:31;12.70;62.40
11762;DHT22;5938;47.098;15.474;2023-04-03T11:00:39;12.90;61.30
11762;DHT22;5938;47.098;15.474;2023-04-03T11:04:45;12.20;60.60
11762;DHT22;5938;47.098;15.474;2023-04-03T11:08:55;11.00;64.20
11762;DHT22;5938;47.098;15.474;2023-04-03T11:13:08;9.90;66.60
11762;DHT22;5938;47.098;15.474;2023-04-03T11:17:27;10.40;65.80
11762;DHT22;5938;47.098;15.474;2023-04-03T11:21:36;9.60;67.50
11762;DHT22;5938;47.098;15.474;2023-04-03T11:25:44;9.80;66.40
11762;DHT22;5938;47.098;15.474;2023-04-03T11:29:50;9.30;67.40
11762;DHT22;5938;47.098;15.474;2023-04-03T11:34:02;9.60;66.90
11762;DHT22;5938;47.098;15.474;2023-04-03T11:38:17;11.10;63.80
11762;DHT22;5938;47.098;15.474;2023-04-03T11:42:34;12.80;61.70
11762;DHT22;5938;47.098;15.474;2023-04-03T11:46:51;13.70;59.60
11762;DHT22;5938;47.098;15.474;2023-04-03T11:50:59;13.90;59.70
11762;DHT22;5938;47.098;15.474;2023-04-03T11:55:46;16.00;56.70
11762;DHT22;5938;47.098;15.474;2023-04-03T11:59:59;15.10;55.50
11762;DHT22;5938;47.098;15.474;2023-04-03T12:04:12;14.70;55.20
11762;DHT22;5938;47.098;15.474;2023-04-03T12:08:25;13.00;58.50
11762;DHT22;5938;47.098;15.474;2023-04-03T12:12:32;14.30;56.40
11762;DHT22;5938;47.098;15.474;2023-04-03T12:16:45;13.00;57.80
11762;DHT22;5938;47.098;15.474;2023-04-03T12:20:57;12.60;58.90
11762;DHT22;5938;47.098;15.474;2023-04-03T12:25:45;11.60;62.00
11762;DHT22;5938;47.098;15.474;2023-04-03T12:29:56;11.50;61.50
11762;DHT22;5938;47.098;15.474;2023-04-03T12:34:26;11.60;61.90
11762;DHT22;5938;47.098;15.474;2023-04-03T12:38:56;9.80;63.00
11762;DHT22;5938;47.098;15.474;2023-04-03T12:43:09;9.80;64.50
11762;DHT22;5938;47.098;15.474;2023-04-03T12:47:27;10.60;62.10
11762;DHT22;5938;47.098;15.474;2023-04-03T12:51:37;10.20;61.70
11762;DHT22;5938;47.098;15.474;2023-04-03T12:55:41;9.80;63.00
11762;DHT22;5938;47.098;15.474;2023-04-03T12:59:44;9.20;66.40
11762;DHT22;5938;47.098;15.474;2023-04-03T13:03:51;10.50;63.90
11762;DHT22;5938;47.098;15.474;2023-04-03T13:08:00;10.70;62.10
11762;DHT22;5938;47.098;15.474;2023-04-03T13:12:11;10.10;65.30
11762;DHT22;5938;47.098;15.474;2023-04-03T13:16:17;9.60;64.30
11762;DHT22;5938;47.098;15.474;2023-04-03T13:20:24;9.60;62.70
11762;DHT22;5938;47.098;15.474;2023-04-03T13:24:30;10.00;61.50
11762;DHT22;5938;47.098;15.474;2023-04-03T13:28:36;12.20;58.90
11762;DHT22;5938;47.098;15.474;2023-04-03T13:32:43;11.30;58.30
11762;DHT22;5938;47.098;15.474;2023-04-03T13:36:56;12.20;58.20
11762;DHT22;5938;47.098;15.474;2023-04-03T13:41:04;13.00;58.50
11762;DHT22;5938;47.098;15.474;2023-04-03T13:45:20;12.00;57.60
11762;DHT22;5938;47.098;15.474;2023-04-03T13:49:32;12.10;58.10
11762;DHT22;5938;47.098;15.474;2023-04-03T13:53:44;11.60;59.20
11762;DHT22;5938;47.098;15.474;2023-04-03T13:57:55;11.20;60.30
11762;DHT22;5938;47.098;15.474;2023-04-03T14:02:18;10.20;61.10
11762;DHT22;5938;47.098;15.474;2023-04-03T14:06:25;9.70;63.70
11762;DHT22;5938;47.098;15.474;2023-04-03T14:10:29;10.20;63.90
11762;DHT22;5938;47.098;15.474;2023-04-03T14:14:36;12.90;58.20
11762;DHT22;5938;47.098;15.474;2023-04-03T14:18:40;14.80;55.30
11762;DHT22;5938;47.098;15.474;2023-04-03T14:22:44;14.70;53.10
11762;DHT22;5938;47.098;15.474;2023-04-03T14:26:48;12.20;54.60
11762;DHT22;5938;47.098;15.474;2023-04-03T14:30:54;12.20;55.00
11762;DHT22;5938;47.098;15.474;2023-04-03T14:34:57;12.30;57.90
11762;DHT22;5938;47.098;15.474;2023-04-03T14:39:02;13.40;54.00
11762;DHT22;5938;47.098;15.474;2023-04-03T14:43:08;15.20;51.90
11762;DHT22;5938;47.098;15.474;2023-04-03T14:47:16;13.80;54.40
11762;DHT22;5938;47.098;15.474;2023-04-03T14:51:32;13.50;54.10
11762;DHT22;5938;47.098;15.474;2023-04-03T14:55:35;14.40;54.90
11762;DHT22;5938;47.098;15.474;2023-04-03T14:59:39;12.90;53.60
11762;DHT22;5938;47.098;15.474;2023-04-03T15:03:44;11.50;56.60
11762;DHT22;5938;47.098;15.474;2023-04-03T15:07:52;11.40;57.00
11762;DHT22;5938;47.098;15.474;2023-04-03T15:11:56;11.00;57.10
11762;DHT22;5938;47.098;15.474;2023-04-03T15:16:00;10.20;59.00
11762;DHT22;5938;47.098;15.474;2023-04-03T15:20:12;9.10;61.70
11762;DHT22;5938;47.098;15.474;2023-04-03T15:24:16;8.90;61.60
11762;DHT22;5938;47.098;15.474;2023-04-03T15:28:23;8.60;63.60
11762;DHT22;5938;47.098;15.474;2023-04-03T15:32:29;8.20;64.10
11762;DHT22;5938;47.098;15.474;2023-04-03T15:36:35;8.00;63.20
11762;DHT22;5938;47.098;15.474;2023-04-03T15:40:38;7.80;63.00
11762;DHT22;5938;47.098;15.474;2023-04-03T15:44:42;7.60;63.70
11762;DHT22;5938;47.098;15.474;2023-04-03T15:48:46;7.50;65.30
11762;DHT22;5938;47.098;15.474;2023-04-03T15:52:53;7.30;65.50
11762;DHT22;5938;47.098;15.474;2023-04-03T15:56:57;7.00;66.00
11762;DHT22;5938;47.098;15.474;2023-04-03T16:01:01;7.00;65.20
11762;DHT22;5938;47.098;15.474;2023-04-03T16:05:06;6.90;67.10
11762;DHT22;5938;47.098;15.474;2023-04-03T16:09:11;6.80;67.10
11762;DHT22;5938;47.098;15.474;2023-04-03T16:13:15;6.80;68.00
11762;DHT22;5938;47.098;15.474;2023-04-03T16:17:18;6.70;65.80
11762;DHT22;5938;47.098;15.474;2023-04-03T16:21:23;6.50;65.10
11762;DHT22;5938;47.098;15.474;2023-04-03T16:25:28;6.40;64.70
11762;DHT22;5938;47.098;15.474;2023-04-03T16:29:34;6.20;67.90
11762;DHT22;5938;47.098;15.474;2023-04-03T16:33:38;6.20;67.50
11762;DHT22;5938;47.098;15.474;2023-04-03T16:37:42;6.00;69.60
11762;DHT22;5938;47.098;15.474;2023-04-03T16:41:47;5.90;69.50
11762;DHT22;5938;47.098;15.474;2023-04-03T16:45:50;5.80;69.50
11762;DHT22;5938;47.098;15.474;2023-04-03T16:49:56;5.50;69.20
11762;DHT22;5938;47.098;15.474;2023-04-03T16:54:01;5.40;69.10
11762;DHT22;5938;47.098;15.474;2023-04-03T16:58:06;5.30;68.30
11762;DHT22;5938;47.098;15.474;2023-04-03T17:02:10;5.20;68.00
11762;DHT22;5938;47.098;15.474;2023-04-03T17:06:17;5.10;68.50
11762;DHT22;5938;47.098;15.474;2023-04-03T17:10:21;4.90;68.70
11762;DHT22;5938;47.098;15.474;2023-04-03T17:14:26;4.70;68.50
11762;DHT22;5938;47.098;15.474;2023-04-03T17:18:30;4.50;68.30
11762;DHT22;5938;47.098;15.474;2023-04-03T17:22:34;4.40;68.40
11762;DHT22;5938;47.098;15.474;2023-04-03T17:26:39;4.20;68.10
11762;DHT22;5938;47.098;15.474;2023-04-03T17:30:45;4.10;69.20
11762;DHT22;5938;47.098;15.474;2023-04-03T17:34:48;4.00;70.50
11762;DHT22;5938;47.098;15.474;2023-04-03T17:38:54;3.90;69.70
11762;DHT22;5938;47.098;15.474;2023-04-03T17:42:58;3.80;70.30
11762;DHT22;5938;47.098;15.474;2023-04-03T17:47:07;3.70;70.60
11762;DHT22;5938;47.098;15.474;2023-04-03T17:51:13;3.70;70.70
11762;DHT22;5938;47.098;15.474;2023-04-03T17:55:17;3.60;70.70
11762;DHT22;5938;47.098;15.474;2023-04-03T17:59:27;3.60;70.90
11762;DHT22;5938;47.098;15.474;2023-04-03T18:03:54;3.50;70.80
11762;DHT22;5938;47.098;15.474;2023-04-03T18:08:00;3.40;70.90
11762;DHT22;5938;47.098;15.474;2023-04-03T18:12:07;3.30;70.90
11762;DHT22;5938;47.098;15.474;2023-04-03T18:16:14;3.30;70.50
11762;DHT22;5938;47.098;15.474;2023-04-03T18:20:25;3.20;71.30
11762;DHT22;5938;47.098;15.474;2023-04-03T18:24:31;3.20;71.00
11762;DHT22;5938;47.098;15.474;2023-04-03T18:28:38;3.20;71.20
11762;DHT22;5938;47.098;15.474;2023-04-03T18:32:43;3.10;70.50
11762;DHT22;5938;47.098;15.474;2023-04-03T18:36:53;3.10;70.40
11762;DHT22;5938;47.098;15.474;2023-04-03T18:41:02;3.00;69.90
11762;DHT22;5938;47.098;15.474;2023-04-03T18:45:11;3.00;70.80
11762;DHT22;5938;47.098;15.474;2023-04-03T18:49:20;3.00;71.50
11762;DHT22;5938;47.098;15.474;2023-04-03T18:53:27;2.90;71.20
11762;DHT22;5938;47.098;15.474;2023-04-03T18:57:35;2.80;70.90
11762;DHT22;5938;47.098;15.474;2023-04-03T19:01:41;2.90;71.90
11762;DHT22;5938;47.098;15.474;2023-04-03T19:05:46;2.80;71.90
11762;DHT22;5938;47.098;15.474;2023-04-03T19:09:53;2.60;72.80
11762;DHT22;5938;47.098;15.474;2023-04-03T19:13:59;2.70;71.30
11762;DHT22;5938;47.098;15.474;2023-04-03T19:18:18;2.70;71.90
11762;DHT22;5938;47.098;15.474;2023-04-03T19:22:23;2.70;71.60
11762;DHT22;5938;47.098;15.474;2023-04-03T19:26:30;2.80;71.50
11762;DHT22;5938;47.098;15.474;2023-04-03T19:30:38;2.70;73.00
11762;DHT22;5938;47.098;15.474;2023-04-03T19:34:43;2.60;72.00
11762;DHT22;5938;47.098;15.474;2023-04-03T19:38:49;2.60;72.90
11762;DHT22;5938;47.098;15.474;2023-04-03T19:42:56;2.60;72.40
11762;DHT22;5938;47.098;15.474;2023-04-03T19:47:01;2.60;72.20
11762;DHT22;5938;47.098;15.474;2023-04-03T19:51:07;2.60;71.00
11762;DHT22;5938;47.098;15.474;2023-04-03T19:55:12;2.60;71.00
11762;DHT22;5938;47.098;15.474;2023-04-03T19:59:18;2.60;71.40
11762;DHT22;5938;47.098;15.474;2023-04-03T20:03:22;2.50;71.40
11762;DHT22;5938;47.098;15.474;2023-04-03T20:07:28;2.50;70.40
11762;DHT22;5938;47.098;15.474;2023-04-03T20:11:34;2.60;70.00
11762;DHT22;5938;47.098;15.474;2023-04-03T20:15:43;2.60;71.00
11762;DHT22;5938;47.098;15.474;2023-04-03T20:19:47;2.40;71.50
11762;DHT22;5938;47.098;15.474;2023-04-03T20:23:52;2.30;72.60
11762;DHT22;5938;47.098;15.474;2023-04-03T20:27:56;2.20;72.20
11762;DHT22;5938;47.098;15.474;2023-04-03T20:32:02;2.10;72.90
11762;DHT22;5938;47.098;15.474;2023-04-03T20:36:08;2.00;72.00
11762;DHT22;5938;47.098;15.474;2023-04-03T20:40:12;2.00;72.60
11762;DHT22;5938;47.098;15.474;2023-04-03T20:44:17;2.00;72.10
11762;DHT22;5938;47.098;15.474;2023-04-03T20:48:24;2.10;72.10
11762;DHT22;5938;47.098;15.474;2023-04-03T20:52:28;2.10;72.30
11762;DHT22;5938;47.098;15.474;2023-04-03T20:56:31;2.10;72.10
11762;DHT22;5938;47.098;15.474;2023-04-03T21:00:36;2.10;72.20
11762;DHT22;5938;47.098;15.474;2023-04-03T21:04:45;2.10;72.60
11762;DHT22;5938;47.098;15.474;2023-04-03T21:22:38;2.00;74.40
11762;DHT22;5938;47.098;15.474;2023-04-03T21:26:45;2.10;73.50
11762;DHT22;5938;47.098;15.474;2023-04-03T21:30:49;2.20;73.60
11762;DHT22;5938;47.098;15.474;2023-04-03T21:34:53;2.30;73.90
11762;DHT22;5938;47.098;15.474;2023-04-03T21:38:57;2.10;74.70
11762;DHT22;5938;47.098;15.474;2023-04-03T21:43:01;2.10;74.00
11762;DHT22;5938;47.098;15.474;2023-04-03T21:47:06;2.10;71.70
11762;DHT22;5938;47.098;15.474;2023-04-03T21:51:11;2.00;72.80
11762;DHT22;5938;47.098;15.474;2023-04-03T21:55:14;1.90;73.60
11762;DHT22;5938;47.098;15.474;2023-04-03T21:59:18;1.70;73.70
11762;DHT22;5938;47.098;15.474;2023-04-03T22:03:22;1.50;76.00
11762;DHT22;5938;47.098;15.474;2023-04-03T22:07:28;1.50;74.90
11762;DHT22;5938;47.098;15.474;2023-04-03T22:11:31;1.60;73.80
11762;DHT22;5938;47.098;15.474;2023-04-03T22:15:35;1.50;73.30
11762;DHT22;5938;47.098;15.474;2023-04-03T22:19:43;1.50;73.90
11762;DHT22;5938;47.098;15.474;2023-04-03T22:23:49;1.40;74.10
11762;DHT22;5938;47.098;15.474;2023-04-03T22:27:53;1.40;73.00
11762;DHT22;5938;47.098;15.474;2023-04-03T22:31:57;1.50;72.70
11762;DHT22;5938;47.098;15.474;2023-04-03T22:36:00;1.50;72.20
11762;DHT22;5938;47.098;15.474;2023-04-03T22:40:07;1.40;72.00
11762;DHT22;5938;47.098;15.474;2023-04-03T22:44:10;1.30;73.10
11762;DHT22;5938;47.098;15.474;2023-04-03T22:48:14;1.20;72.20
11762;DHT22;5938;47.098;15.474;2023-04-03T22:52:18;1.10;72.40
11762;DHT22;5938;47.098;15.474;2023-04-03T22:56:25;1.10;73.00
11762;DHT22;5938;47.098;15.474;2023-04-03T23:00:28;1.20;72.30
11762;DHT22;5938;47.098;15.474;2023-04-03T23:04:32;1.10;72.80
11762;DHT22;5938;47.098;15.474;2023-04-03T23:08:36;0.90;73.30
11762;DHT22;5938;47.098;15.474;2023-04-03T23:12:42;0.80;73.10
11762;DHT22;5938;47.098;15.474;2023-04-03T23:16:45;0.70;74.80
11762;DHT22;5938;47.098;15.474;2023-04-03T23:20:52;0.60;75.20
11762;DHT22;5938;47.098;15.474;2023-04-03T23:51:50;-0.10;76.50
11762;DHT22;5938;47.098;15.474;2023-04-03T23:55:55;-0.30;79.10
11762;DHT22;5938;47.098;15.474;2023-04-03T23:59:59;-0.30;77.70
